sensor_id;sensor_type;location;lat;lon;timestamp;temperature;humidity
37972;DHT22;23794;48.234;8.344;2022-10-16T00:01:20;12.80;99.90
37972;DHT22;23794;48.234;8.344;2022-10-16T00:03:47;12.80;99.90
37972;DHT22;23794;48.234;8.344;2022-10-16T00:06:16;12.80;99.90
37972;DHT22;23794;48.234;8.344;2022-10-16T00:08:43;12.80;99.90
37972;DHT22;23794;48.234;8.344;2022-10-16T00:11:15;12.70;99.90
37972;DHT22;23794;48.234;8.344;2022-10-16T00:13:43;12.80;99.90
37972;DHT22;23794;48.234;8.344;2022-10-16T00:16:11;12.80;99.90
37972;DHT22;23794;48.234;8.344;2022-10-16T00:18:38;12.70;99.90
37972;DHT22;23794;48.234;8.344;2022-10-16T00:21:11;12.60;99.90
37972;DHT22;23794;48.234;8.344;2022-10-16T00:23:39;12.70;99.90
37972;DHT22;23794;48.234;8.344;2022-10-16T00:26:08;12.70;99.90
37972;DHT22;23794;48.234;8.344;2022-10-16T00:28:35;12.70;99.90
37972;DHT22;23794;48.234;8.344;2022-10-16T00:31:07;12.60;99.90
37972;DHT22;23794;48.234;8.344;2022-10-16T00:33:35;12.60;99.90
37972;DHT22;23794;48.234;8.344;2022-10-16T00:36:03;12.70;99.90
37972;DHT22;23794;48.234;8.344;2022-10-16T00:38:31;12.70;99.90
37972;DHT22;23794;48.234;8.344;2022-10-16T00:40:58;12.70;99.90
37972;DHT22;23794;48.234;8.344;2022-10-16T00:43:48;12.70;99.90
37972;DHT22;23794;48.234;8.344;2022-10-16T00:49:16;12.60;99.90
37972;DHT22;23794;48.234;8.344;2022-10-16T00:51:47;12.70;99.90
37972;DHT22;23794;48.234;8.344;2022-10-16T00:54:27;12.60;99.90
37972;DHT22;23794;48.234;8.344;2022-10-16T00:56:56;12.60;99.90
37972;DHT22;23794;48.234;8.344;2022-10-16T00:59:35;12.70;99.90
37972;DHT22;23794;48.234;8.344;2022-10-16T01:02:04;12.80;99.90
37972;DHT22;23794;48.234;8.344;2022-10-16T01:04:35;12.80;99.90
37972;DHT22;23794;48.234;8.344;2022-10-16T01:10:12;12.80;99.90
37972;DHT22;23794;48.234;8.344;2022-10-16T01:15:47;12.90;99.90
37972;DHT22;23794;48.234;8.344;2022-10-16T01:26:24;12.80;99.90
37972;DHT22;23794;48.234;8.344;2022-10-16T01:29:20;12.80;99.90
37972;DHT22;23794;48.234;8.344;2022-10-16T01:32:33;12.90;99.90
37972;DHT22;23794;48.234;8.344;2022-10-16T01:34:56;12.80;99.90
37972;DHT22;23794;48.234;8.344;2022-10-16T01:37:33;12.80;99.90
37972;DHT22;23794;48.234;8.344;2022-10-16T01:40:05;12.80;99.90
37972;DHT22;23794;48.234;8.344;2022-10-16T01:42:36;12.80;99.90
37972;DHT22;23794;48.234;8.344;2022-10-16T01:45:05;12.70;99.90
37972;DHT22;23794;48.234;8.344;2022-10-16T01:47:35;12.80;99.90
37972;DHT22;23794;48.234;8.344;2022-10-16T01:50:04;12.80;99.90
37972;DHT22;23794;48.234;8.344;2022-10-16T01:52:35;12.70;99.90
37972;DHT22;23794;48.234;8.344;2022-10-16T01:55:05;12.70;99.90
37972;DHT22;23794;48.234;8.344;2022-10-16T01:57:37;12.70;99.90
37972;DHT22;23794;48.234;8.344;2022-10-16T02:00:09;12.80;99.90
37972;DHT22;23794;48.234;8.344;2022-10-16T02:02:41;12.70;99.90
37972;DHT22;23794;48.234;8.344;2022-10-16T02:05:16;12.70;99.90
37972;DHT22;23794;48.234;8.344;2022-10-16T02:07:45;12.80;99.90
37972;DHT22;23794;48.234;8.344;2022-10-16T02:10:12;12.90;99.90
37972;DHT22;23794;48.234;8.344;2022-10-16T02:12:42;12.80;99.90
37972;DHT22;23794;48.234;8.344;2022-10-16T02:15:09;12.80;99.90
37972;DHT22;23794;48.234;8.344;2022-10-16T02:17:36;12.80;99.90
37972;DHT22;23794;48.234;8.344;2022-10-16T02:20:04;12.80;99.90
37972;DHT22;23794;48.234;8.344;2022-10-16T02:22:38;12.80;99.90
37972;DHT22;23794;48.234;8.344;2022-10-16T02:25:24;12.80;99.90
37972;DHT22;23794;48.234;8.344;2022-10-16T02:28:06;12.80;99.90
37972;DHT22;23794;48.234;8.344;2022-10-16T02:30:36;12.80;99.90
37972;DHT22;23794;48.234;8.344;2022-10-16T02:33:07;12.80;99.90
37972;DHT22;23794;48.234;8.344;2022-10-16T02:35:36;12.70;99.90
37972;DHT22;23794;48.234;8.344;2022-10-16T02:38:04;12.60;99.90
37972;DHT22;23794;48.234;8.344;2022-10-16T02:40:32;12.60;99.90
37972;DHT22;23794;48.234;8.344;2022-10-16T02:42:58;12.60;99.90
37972;DHT22;23794;48.234;8.344;2022-10-16T02:45:26;12.60;99.90
37972;DHT22;23794;48.234;8.344;2022-10-16T02:47:53;12.70;99.90
37972;DHT22;23794;48.234;8.344;2022-10-16T02:50:20;12.60;99.90
37972;DHT22;23794;48.234;8.344;2022-10-16T02:52:46;12.50;99.90
37972;DHT22;23794;48.234;8.344;2022-10-16T02:55:13;12.60;99.90
37972;DHT22;23794;48.234;8.344;2022-10-16T02:57:40;12.60;99.90
37972;DHT22;23794;48.234;8.344;2022-10-16T03:00:09;12.60;99.90
37972;DHT22;23794;48.234;8.344;2022-10-16T03:02:36;12.50;99.90
37972;DHT22;23794;48.234;8.344;2022-10-16T03:05:03;12.60;99.90
37972;DHT22;23794;48.234;8.344;2022-10-16T03:07:30;12.50;99.90
37972;DHT22;23794;48.234;8.344;2022-10-16T03:09:57;12.60;99.90
37972;DHT22;23794;48.234;8.344;2022-10-16T03:12:27;12.60;99.90
37972;DHT22;23794;48.234;8.344;2022-10-16T03:14:55;12.60;99.90
37972;DHT22;23794;48.234;8.344;2022-10-16T03:17:23;12.70;99.90
37972;DHT22;23794;48.234;8.344;2022-10-16T03:19:51;12.60;99.90
37972;DHT22;23794;48.234;8.344;2022-10-16T03:22:18;12.70;99.90
37972;DHT22;23794;48.234;8.344;2022-10-16T03:24:45;12.70;99.90
37972;DHT22;23794;48.234;8.344;2022-10-16T03:27:12;12.70;99.90
37972;DHT22;23794;48.234;8.344;2022-10-16T03:29:38;12.70;99.90
37972;DHT22;23794;48.234;8.344;2022-10-16T03:32:05;12.60;99.90
37972;DHT22;23794;48.234;8.344;2022-10-16T03:34:32;12.60;99.90
37972;DHT22;23794;48.234;8.344;2022-10-16T03:36:59;12.70;99.90
37972;DHT22;23794;48.234;8.344;2022-10-16T03:39:26;12.60;99.90
37972;DHT22;23794;48.234;8.344;2022-10-16T03:41:53;12.60;99.90
37972;DHT22;23794;48.234;8.344;2022-10-16T03:44:20;12.60;99.90
37972;DHT22;23794;48.234;8.344;2022-10-16T03:46:48;12.60;99.90
37972;DHT22;23794;48.234;8.344;2022-10-16T03:49:15;12.70;99.90
37972;DHT22;23794;48.234;8.344;2022-10-16T03:51:42;12.70;99.90
37972;DHT22;23794;48.234;8.344;2022-10-16T03:54:10;12.70;99.90
37972;DHT22;23794;48.234;8.344;2022-10-16T03:56:37;12.60;99.90
37972;DHT22;23794;48.234;8.344;2022-10-16T03:59:04;12.60;99.90
37972;DHT22;23794;48.234;8.344;2022-10-16T04:01:31;12.70;99.90
37972;DHT22;23794;48.234;8.344;2022-10-16T04:03:57;12.70;99.90
37972;DHT22;23794;48.234;8.344;2022-10-16T04:06:24;12.70;99.90
37972;DHT22;23794;48.234;8.344;2022-10-16T04:08:51;12.70;99.90
37972;DHT22;23794;48.234;8.344;2022-10-16T04:11:18;12.70;99.90
37972;DHT22;23794;48.234;8.344;2022-10-16T04:13:45;12.80;99.90
37972;DHT22;23794;48.234;8.344;2022-10-16T04:16:11;12.80;99.90
37972;DHT22;23794;48.234;8.344;2022-10-16T04:18:38;12.60;99.90
37972;DHT22;23794;48.234;8.344;2022-10-16T04:21:06;12.70;99.90
37972;DHT22;23794;48.234;8.344;2022-10-16T04:23:33;12.80;99.90
37972;DHT22;23794;48.234;8.344;2022-10-16T04:26:00;12.80;99.90
37972;DHT22;23794;48.234;8.344;2022-10-16T04:28:27;12.80;99.90
37972;DHT22;23794;48.234;8.344;2022-10-16T04:30:54;12.80;99.90
37972;DHT22;23794;48.234;8.344;2022-10-16T04:33:20;12.70;99.90
37972;DHT22;23794;48.234;8.344;2022-10-16T04:35:47;12.70;99.90
37972;DHT22;23794;48.234;8.344;2022-10-16T04:38:14;12.70;99.90
37972;DHT22;23794;48.234;8.344;2022-10-16T04:40:42;12.70;99.90
37972;DHT22;23794;48.234;8.344;2022-10-16T04:43:09;12.60;99.90
37972;DHT22;23794;48.234;8.344;2022-10-16T04:45:36;12.60;99.90
37972;DHT22;23794;48.234;8.344;2022-10-16T04:48:03;12.70;99.90
37972;DHT22;23794;48.234;8.344;2022-10-16T04:50:29;12.70;99.90
37972;DHT22;23794;48.234;8.344;2022-10-16T04:53:05;12.80;99.90
37972;DHT22;23794;48.234;8.344;2022-10-16T04:55:32;12.80;99.90
37972;DHT22;23794;48.234;8.344;2022-10-16T04:57:59;12.80;99.90
37972;DHT22;23794;48.234;8.344;2022-10-16T05:00:26;12.80;99.90
37972;DHT22;23794;48.234;8.344;2022-10-16T05:02:53;12.70;99.90
37972;DHT22;23794;48.234;8.344;2022-10-16T05:05:20;12.80;99.90
37972;DHT22;23794;48.234;8.344;2022-10-16T05:07:48;12.80;99.90
37972;DHT22;23794;48.234;8.344;2022-10-16T05:10:16;12.80;99.90
37972;DHT22;23794;48.234;8.344;2022-10-16T05:12:43;12.80;99.90
37972;DHT22;23794;48.234;8.344;2022-10-16T05:15:10;12.70;99.90
37972;DHT22;23794;48.234;8.344;2022-10-16T05:17:37;12.80;99.90
37972;DHT22;23794;48.234;8.344;2022-10-16T05:20:10;12.80;99.90
37972;DHT22;23794;48.234;8.344;2022-10-16T05:22:38;12.80;99.90
37972;DHT22;23794;48.234;8.344;2022-10-16T05:25:05;12.70;99.90
37972;DHT22;23794;48.234;8.344;2022-10-16T05:27:32;12.70;99.90
37972;DHT22;23794;48.234;8.344;2022-10-16T05:29:58;12.70;99.90
37972;DHT22;23794;48.234;8.344;2022-10-16T05:32:25;12.70;99.90
37972;DHT22;23794;48.234;8.344;2022-10-16T05:34:52;12.70;99.90
37972;DHT22;23794;48.234;8.344;2022-10-16T05:37:19;12.60;99.90
37972;DHT22;23794;48.234;8.344;2022-10-16T05:39:46;12.70;99.90
37972;DHT22;23794;48.234;8.344;2022-10-16T05:42:13;12.70;99.90
37972;DHT22;23794;48.234;8.344;2022-10-16T05:44:39;12.70;99.90
37972;DHT22;23794;48.234;8.344;2022-10-16T05:47:06;12.70;99.90
37972;DHT22;23794;48.234;8.344;2022-10-16T05:49:33;12.70;99.90
37972;DHT22;23794;48.234;8.344;2022-10-16T05:52:06;12.80;99.90
37972;DHT22;23794;48.234;8.344;2022-10-16T05:54:33;12.70;99.90
37972;DHT22;23794;48.234;8.344;2022-10-16T05:56:59;12.70;99.90
37972;DHT22;23794;48.234;8.344;2022-10-16T05:59:26;12.70;99.90
37972;DHT22;23794;48.234;8.344;2022-10-16T06:01:53;12.80;99.90
37972;DHT22;23794;48.234;8.344;2022-10-16T06:04:20;12.80;99.90
37972;DHT22;23794;48.234;8.344;2022-10-16T06:06:47;12.80;99.90
37972;DHT22;23794;48.234;8.344;2022-10-16T06:09:14;12.90;99.90
37972;DHT22;23794;48.234;8.344;2022-10-16T06:11:41;13.10;99.90
37972;DHT22;23794;48.234;8.344;2022-10-16T06:14:08;13.10;99.90
37972;DHT22;23794;48.234;8.344;2022-10-16T06:16:36;13.00;99.90
37972;DHT22;23794;48.234;8.344;2022-10-16T06:19:04;13.00;99.90
37972;DHT22;23794;48.234;8.344;2022-10-16T06:21:36;13.10;99.90
37972;DHT22;23794;48.234;8.344;2022-10-16T06:24:03;13.20;99.90
37972;DHT22;23794;48.234;8.344;2022-10-16T06:26:31;13.30;99.90
37972;DHT22;23794;48.234;8.344;2022-10-16T06:28:59;13.30;99.90
37972;DHT22;23794;48.234;8.344;2022-10-16T06:31:27;13.30;99.90
37972;DHT22;23794;48.234;8.344;2022-10-16T06:33:57;13.40;99.90
37972;DHT22;23794;48.234;8.344;2022-10-16T06:36:24;13.40;99.90
37972;DHT22;23794;48.234;8.344;2022-10-16T06:38:52;13.50;99.90
37972;DHT22;23794;48.234;8.344;2022-10-16T06:41:21;13.50;99.90
37972;DHT22;23794;48.234;8.344;2022-10-16T06:43:48;13.60;99.90
37972;DHT22;23794;48.234;8.344;2022-10-16T06:46:18;13.60;99.90
37972;DHT22;23794;48.234;8.344;2022-10-16T06:48:46;13.60;99.90
37972;DHT22;23794;48.234;8.344;2022-10-16T06:51:18;13.60;99.90
37972;DHT22;23794;48.234;8.344;2022-10-16T06:53:54;13.70;99.90
37972;DHT22;23794;48.234;8.344;2022-10-16T06:56:32;13.60;99.90
37972;DHT22;23794;48.234;8.344;2022-10-16T06:58:59;13.70;99.90
37972;DHT22;23794;48.234;8.344;2022-10-16T07:01:27;13.70;99.90
37972;DHT22;23794;48.234;8.344;2022-10-16T07:03:54;13.70;99.90
37972;DHT22;23794;48.234;8.344;2022-10-16T07:06:23;13.70;99.90
37972;DHT22;23794;48.234;8.344;2022-10-16T07:08:53;13.70;99.90
37972;DHT22;23794;48.234;8.344;2022-10-16T07:11:22;13.80;99.90
37972;DHT22;23794;48.234;8.344;2022-10-16T07:13:50;13.90;99.90
37972;DHT22;23794;48.234;8.344;2022-10-16T07:16:27;13.90;99.90
37972;DHT22;23794;48.234;8.344;2022-10-16T07:18:55;14.10;99.90
37972;DHT22;23794;48.234;8.344;2022-10-16T07:21:32;14.10;99.90
37972;DHT22;23794;48.234;8.344;2022-10-16T07:24:07;14.20;99.90
37972;DHT22;23794;48.234;8.344;2022-10-16T07:26:34;14.30;99.90
37972;DHT22;23794;48.234;8.344;2022-10-16T07:29:02;14.30;99.90
37972;DHT22;23794;48.234;8.344;2022-10-16T07:31:30;14.20;99.90
37972;DHT22;23794;48.234;8.344;2022-10-16T07:33:58;14.20;99.90
37972;DHT22;23794;48.234;8.344;2022-10-16T07:36:25;14.30;99.90
37972;DHT22;23794;48.234;8.344;2022-10-16T07:38:52;14.30;99.90
37972;DHT22;23794;48.234;8.344;2022-10-16T07:41:24;14.40;99.90
37972;DHT22;23794;48.234;8.344;2022-10-16T07:43:52;14.60;99.90
37972;DHT22;23794;48.234;8.344;2022-10-16T07:46:20;14.80;99.90
37972;DHT22;23794;48.234;8.344;2022-10-16T07:48:48;14.90;99.90
37972;DHT22;23794;48.234;8.344;2022-10-16T07:51:18;15.00;99.90
37972;DHT22;23794;48.234;8.344;2022-10-16T07:53:45;15.00;99.90
37972;DHT22;23794;48.234;8.344;2022-10-16T07:56:12;15.00;99.90
37972;DHT22;23794;48.234;8.344;2022-10-16T07:58:40;15.10;99.90
37972;DHT22;23794;48.234;8.344;2022-10-16T08:01:09;15.10;99.90
37972;DHT22;23794;48.234;8.344;2022-10-16T08:03:37;15.10;99.90
37972;DHT22;23794;48.234;8.344;2022-10-16T08:06:04;15.20;99.90
37972;DHT22;23794;48.234;8.344;2022-10-16T08:08:31;15.20;99.90
37972;DHT22;23794;48.234;8.344;2022-10-16T08:10:58;15.30;99.90
37972;DHT22;23794;48.234;8.344;2022-10-16T08:13:24;15.40;99.90
37972;DHT22;23794;48.234;8.344;2022-10-16T08:15:53;15.40;99.90
37972;DHT22;23794;48.234;8.344;2022-10-16T08:18:21;15.40;99.90
37972;DHT22;23794;48.234;8.344;2022-10-16T08:20:48;15.40;99.90
37972;DHT22;23794;48.234;8.344;2022-10-16T08:23:21;15.50;99.90
37972;DHT22;23794;48.234;8.344;2022-10-16T08:25:47;15.50;99.90
37972;DHT22;23794;48.234;8.344;2022-10-16T08:28:14;15.60;99.90
37972;DHT22;23794;48.234;8.344;2022-10-16T08:30:42;15.60;99.90
37972;DHT22;23794;48.234;8.344;2022-10-16T08:33:09;15.50;99.90
37972;DHT22;23794;48.234;8.344;2022-10-16T08:35:35;15.70;99.90
37972;DHT22;23794;48.234;8.344;2022-10-16T08:38:06;15.70;99.90
37972;DHT22;23794;48.234;8.344;2022-10-16T08:40:36;15.70;99.90
37972;DHT22;23794;48.234;8.344;2022-10-16T08:51:01;15.60;99.90
37972;DHT22;23794;48.234;8.344;2022-10-16T08:53:44;15.70;99.90
37972;DHT22;23794;48.234;8.344;2022-10-16T08:56:13;15.70;99.90
37972;DHT22;23794;48.234;8.344;2022-10-16T08:58:39;15.80;99.90
37972;DHT22;23794;48.234;8.344;2022-10-16T09:01:13;15.90;99.90
37972;DHT22;23794;48.234;8.344;2022-10-16T09:04:02;15.80;99.90
37972;DHT22;23794;48.234;8.344;2022-10-16T09:06:52;15.80;99.90
37972;DHT22;23794;48.234;8.344;2022-10-16T09:18:00;16.60;99.90
37972;DHT22;23794;48.234;8.344;2022-10-16T09:20:32;16.70;99.90
37972;DHT22;23794;48.234;8.344;2022-10-16T09:23:18;16.70;99.90
37972;DHT22;23794;48.234;8.344;2022-10-16T09:25:46;16.60;99.90
37972;DHT22;23794;48.234;8.344;2022-10-16T09:28:15;16.70;99.90
37972;DHT22;23794;48.234;8.344;2022-10-16T09:30:42;16.70;99.90
37972;DHT22;23794;48.234;8.344;2022-10-16T09:33:11;16.60;99.90
37972;DHT22;23794;48.234;8.344;2022-10-16T09:35:47;16.40;99.90
37972;DHT22;23794;48.234;8.344;2022-10-16T09:38:25;16.50;99.90
37972;DHT22;23794;48.234;8.344;2022-10-16T09:40:53;16.60;99.90
37972;DHT22;23794;48.234;8.344;2022-10-16T09:46:31;16.90;99.90
37972;DHT22;23794;48.234;8.344;2022-10-16T09:49:21;17.20;99.90
37972;DHT22;23794;48.234;8.344;2022-10-16T09:51:49;17.00;99.90
37972;DHT22;23794;48.234;8.344;2022-10-16T09:54:18;16.90;99.90
37972;DHT22;23794;48.234;8.344;2022-10-16T09:56:46;16.90;99.90
37972;DHT22;23794;48.234;8.344;2022-10-16T10:01:48;17.60;99.90
37972;DHT22;23794;48.234;8.344;2022-10-16T10:04:22;18.00;99.90
37972;DHT22;23794;48.234;8.344;2022-10-16T10:06:56;18.30;99.90
37972;DHT22;23794;48.234;8.344;2022-10-16T10:09:27;18.40;99.90
37972;DHT22;23794;48.234;8.344;2022-10-16T10:11:57;18.60;99.90
37972;DHT22;23794;48.234;8.344;2022-10-16T10:14:28;19.00;99.90
37972;DHT22;23794;48.234;8.344;2022-10-16T10:30:20;20.80;99.90
37972;DHT22;23794;48.234;8.344;2022-10-16T10:39:15;21.80;99.90
37972;DHT22;23794;48.234;8.344;2022-10-16T10:41:57;22.00;99.90
37972;DHT22;23794;48.234;8.344;2022-10-16T10:44:52;21.90;99.90
37972;DHT22;23794;48.234;8.344;2022-10-16T10:52:53;21.80;99.90
37972;DHT22;23794;48.234;8.344;2022-10-16T10:55:31;21.60;99.90
37972;DHT22;23794;48.234;8.344;2022-10-16T10:58:19;21.30;99.90
37972;DHT22;23794;48.234;8.344;2022-10-16T11:00:57;21.10;99.90
37972;DHT22;23794;48.234;8.344;2022-10-16T11:06:18;21.30;99.90
37972;DHT22;23794;48.234;8.344;2022-10-16T11:08:55;21.50;99.90
37972;DHT22;23794;48.234;8.344;2022-10-16T11:11:34;21.50;99.90
37972;DHT22;23794;48.234;8.344;2022-10-16T11:14:33;21.50;99.90
37972;DHT22;23794;48.234;8.344;2022-10-16T11:17:25;21.40;99.90
37972;DHT22;23794;48.234;8.344;2022-10-16T11:20:00;21.40;99.90
37972;DHT22;23794;48.234;8.344;2022-10-16T11:22:37;21.60;99.90
37972;DHT22;23794;48.234;8.344;2022-10-16T11:28:06;21.70;99.90
37972;DHT22;23794;48.234;8.344;2022-10-16T11:30:59;21.70;99.90
37972;DHT22;23794;48.234;8.344;2022-10-16T11:33:32;21.60;99.90
37972;DHT22;23794;48.234;8.344;2022-10-16T11:36:35;21.60;99.90
37972;DHT22;23794;48.234;8.344;2022-10-16T11:39:25;21.50;99.90
37972;DHT22;23794;48.234;8.344;2022-10-16T11:42:13;21.30;99.90
37972;DHT22;23794;48.234;8.344;2022-10-16T11:45:03;21.20;99.90
37972;DHT22;23794;48.234;8.344;2022-10-16T11:53:18;21.10;99.90
37972;DHT22;23794;48.234;8.344;2022-10-16T11:55:48;21.40;99.90
37972;DHT22;23794;48.234;8.344;2022-10-16T11:58:26;21.50;99.90
37972;DHT22;23794;48.234;8.344;2022-10-16T12:00:58;22.00;99.90
37972;DHT22;23794;48.234;8.344;2022-10-16T12:09:00;23.00;99.90
37972;DHT22;23794;48.234;8.344;2022-10-16T12:17:23;23.30;99.90
37972;DHT22;23794;48.234;8.344;2022-10-16T12:23:15;23.30;99.90
37972;DHT22;23794;48.234;8.344;2022-10-16T12:25:40;23.20;99.90
37972;DHT22;23794;48.234;8.344;2022-10-16T12:30:43;23.40;99.90
37972;DHT22;23794;48.234;8.344;2022-10-16T12:35:58;23.80;99.90
37972;DHT22;23794;48.234;8.344;2022-10-16T12:38:28;23.50;99.90
37972;DHT22;23794;48.234;8.344;2022-10-16T12:41:06;23.10;99.90
37972;DHT22;23794;48.234;8.344;2022-10-16T12:48:37;22.60;99.90
37972;DHT22;23794;48.234;8.344;2022-10-16T13:01:49;22.30;99.90
37972;DHT22;23794;48.234;8.344;2022-10-16T13:04:33;22.50;99.90
37972;DHT22;23794;48.234;8.344;2022-10-16T13:13:21;22.90;99.90
37972;DHT22;23794;48.234;8.344;2022-10-16T13:18:29;22.70;99.90
37972;DHT22;23794;48.234;8.344;2022-10-16T13:28:41;22.90;99.90
37972;DHT22;23794;48.234;8.344;2022-10-16T13:31:36;23.20;99.90
37972;DHT22;23794;48.234;8.344;2022-10-16T13:34:05;23.50;99.90
37972;DHT22;23794;48.234;8.344;2022-10-16T13:36:48;23.50;99.90
37972;DHT22;23794;48.234;8.344;2022-10-16T13:39:28;23.40;99.90
37972;DHT22;23794;48.234;8.344;2022-10-16T13:42:06;23.20;99.90
37972;DHT22;23794;48.234;8.344;2022-10-16T13:44:47;23.20;99.90
37972;DHT22;23794;48.234;8.344;2022-10-16T13:49:59;23.00;99.90
37972;DHT22;23794;48.234;8.344;2022-10-16T13:52:28;23.00;99.90
37972;DHT22;23794;48.234;8.344;2022-10-16T13:54:55;22.90;99.90
37972;DHT22;23794;48.234;8.344;2022-10-16T13:57:28;22.80;99.90
37972;DHT22;23794;48.234;8.344;2022-10-16T13:59:55;22.70;99.90
37972;DHT22;23794;48.234;8.344;2022-10-16T14:04:54;22.70;99.90
37972;DHT22;23794;48.234;8.344;2022-10-16T14:07:26;22.70;99.90
37972;DHT22;23794;48.234;8.344;2022-10-16T14:09:55;22.60;99.90
37972;DHT22;23794;48.234;8.344;2022-10-16T14:12:24;22.50;99.90
37972;DHT22;23794;48.234;8.344;2022-10-16T14:14:55;22.40;99.90
37972;DHT22;23794;48.234;8.344;2022-10-16T14:17:29;22.50;99.90
37972;DHT22;23794;48.234;8.344;2022-10-16T14:19:58;22.60;99.90
37972;DHT22;23794;48.234;8.344;2022-10-16T14:22:40;22.60;99.90
37972;DHT22;23794;48.234;8.344;2022-10-16T14:25:33;22.30;99.90
37972;DHT22;23794;48.234;8.344;2022-10-16T14:30:36;21.80;99.90
37972;DHT22;23794;48.234;8.344;2022-10-16T14:33:20;21.50;99.90
37972;DHT22;23794;48.234;8.344;2022-10-16T14:36:02;21.40;99.90
37972;DHT22;23794;48.234;8.344;2022-10-16T14:38:31;21.40;99.90
37972;DHT22;23794;48.234;8.344;2022-10-16T14:40:59;21.20;99.90
37972;DHT22;23794;48.234;8.344;2022-10-16T14:45:57;21.00;99.90
37972;DHT22;23794;48.234;8.344;2022-10-16T14:48:24;21.00;99.90
37972;DHT22;23794;48.234;8.344;2022-10-16T14:50:51;20.90;99.90
37972;DHT22;23794;48.234;8.344;2022-10-16T14:53:18;20.90;99.90
37972;DHT22;23794;48.234;8.344;2022-10-16T14:55:45;20.80;99.90
37972;DHT22;23794;48.234;8.344;2022-10-16T14:58:20;20.70;99.90
37972;DHT22;23794;48.234;8.344;2022-10-16T15:00:48;20.60;99.90
37972;DHT22;23794;48.234;8.344;2022-10-16T15:03:16;20.50;99.90
37972;DHT22;23794;48.234;8.344;2022-10-16T15:05:43;20.50;99.90
37972;DHT22;23794;48.234;8.344;2022-10-16T15:08:10;20.50;99.90
37972;DHT22;23794;48.234;8.344;2022-10-16T15:10:42;20.40;99.90
37972;DHT22;23794;48.234;8.344;2022-10-16T15:13:12;20.20;99.90
37972;DHT22;23794;48.234;8.344;2022-10-16T15:15:45;20.00;99.90
37972;DHT22;23794;48.234;8.344;2022-10-16T15:18:12;20.00;99.90
37972;DHT22;23794;48.234;8.344;2022-10-16T15:20:42;20.00;99.90
37972;DHT22;23794;48.234;8.344;2022-10-16T15:23:16;19.90;99.90
37972;DHT22;23794;48.234;8.344;2022-10-16T15:25:51;19.90;99.90
37972;DHT22;23794;48.234;8.344;2022-10-16T15:28:19;19.90;99.90
37972;DHT22;23794;48.234;8.344;2022-10-16T15:30:49;19.80;99.90
37972;DHT22;23794;48.234;8.344;2022-10-16T15:33:20;19.60;99.90
37972;DHT22;23794;48.234;8.344;2022-10-16T15:35:50;19.50;99.90
37972;DHT22;23794;48.234;8.344;2022-10-16T15:38:19;19.30;99.90
37972;DHT22;23794;48.234;8.344;2022-10-16T15:40:47;19.10;99.90
37972;DHT22;23794;48.234;8.344;2022-10-16T15:43:15;19.10;99.90
37972;DHT22;23794;48.234;8.344;2022-10-16T15:45:42;19.10;99.90
37972;DHT22;23794;48.234;8.344;2022-10-16T15:48:13;19.10;99.90
37972;DHT22;23794;48.234;8.344;2022-10-16T15:50:40;18.90;99.90
37972;DHT22;23794;48.234;8.344;2022-10-16T15:53:09;18.80;99.90
37972;DHT22;23794;48.234;8.344;2022-10-16T15:55:36;18.60;99.90
37972;DHT22;23794;48.234;8.344;2022-10-16T15:58:04;18.50;99.90
37972;DHT22;23794;48.234;8.344;2022-10-16T16:00:32;18.40;99.90
37972;DHT22;23794;48.234;8.344;2022-10-16T16:02:59;18.30;99.90
37972;DHT22;23794;48.234;8.344;2022-10-16T16:05:26;18.30;99.90
37972;DHT22;23794;48.234;8.344;2022-10-16T16:07:54;18.20;99.90
37972;DHT22;23794;48.234;8.344;2022-10-16T16:10:21;18.10;99.90
37972;DHT22;23794;48.234;8.344;2022-10-16T16:12:48;18.00;99.90
37972;DHT22;23794;48.234;8.344;2022-10-16T16:15:20;17.80;99.90
37972;DHT22;23794;48.234;8.344;2022-10-16T16:17:48;17.70;99.90
37972;DHT22;23794;48.234;8.344;2022-10-16T16:20:16;17.50;99.90
37972;DHT22;23794;48.234;8.344;2022-10-16T16:22:43;17.50;99.90
37972;DHT22;23794;48.234;8.344;2022-10-16T16:25:10;17.40;99.90
37972;DHT22;23794;48.234;8.344;2022-10-16T16:27:37;17.20;99.90
37972;DHT22;23794;48.234;8.344;2022-10-16T16:30:10;17.10;99.90
37972;DHT22;23794;48.234;8.344;2022-10-16T16:32:45;17.00;99.90
37972;DHT22;23794;48.234;8.344;2022-10-16T16:35:12;17.00;99.90
37972;DHT22;23794;48.234;8.344;2022-10-16T16:37:39;16.90;99.90
37972;DHT22;23794;48.234;8.344;2022-10-16T16:40:06;16.80;99.90
37972;DHT22;23794;48.234;8.344;2022-10-16T16:42:33;16.60;99.90
37972;DHT22;23794;48.234;8.344;2022-10-16T16:45:00;16.50;99.90
37972;DHT22;23794;48.234;8.344;2022-10-16T16:47:27;16.50;99.90
37972;DHT22;23794;48.234;8.344;2022-10-16T16:49:54;16.40;99.90
37972;DHT22;23794;48.234;8.344;2022-10-16T16:52:21;16.40;99.90
37972;DHT22;23794;48.234;8.344;2022-10-16T16:54:48;16.20;99.90
37972;DHT22;23794;48.234;8.344;2022-10-16T16:57:19;16.20;99.90
37972;DHT22;23794;48.234;8.344;2022-10-16T16:59:49;16.20;99.90
37972;DHT22;23794;48.234;8.344;2022-10-16T17:02:16;16.10;99.90
37972;DHT22;23794;48.234;8.344;2022-10-16T17:04:43;16.00;99.90
37972;DHT22;23794;48.234;8.344;2022-10-16T17:07:10;16.00;99.90
37972;DHT22;23794;48.234;8.344;2022-10-16T17:09:37;16.00;99.90
37972;DHT22;23794;48.234;8.344;2022-10-16T17:12:04;15.90;99.90
37972;DHT22;23794;48.234;8.344;2022-10-16T17:14:31;15.80;99.90
37972;DHT22;23794;48.234;8.344;2022-10-16T17:16:58;15.80;99.90
37972;DHT22;23794;48.234;8.344;2022-10-16T17:19:25;15.80;99.90
37972;DHT22;23794;48.234;8.344;2022-10-16T17:21:52;15.70;99.90
37972;DHT22;23794;48.234;8.344;2022-10-16T17:24:20;15.60;99.90
37972;DHT22;23794;48.234;8.344;2022-10-16T17:26:47;15.60;99.90
37972;DHT22;23794;48.234;8.344;2022-10-16T17:29:16;15.50;99.90
37972;DHT22;23794;48.234;8.344;2022-10-16T17:31:44;15.50;99.90
37972;DHT22;23794;48.234;8.344;2022-10-16T17:34:11;15.50;99.90
37972;DHT22;23794;48.234;8.344;2022-10-16T17:36:39;15.50;99.90
37972;DHT22;23794;48.234;8.344;2022-10-16T17:39:11;15.40;99.90
37972;DHT22;23794;48.234;8.344;2022-10-16T17:41:39;15.40;99.90
37972;DHT22;23794;48.234;8.344;2022-10-16T17:44:06;15.40;99.90
37972;DHT22;23794;48.234;8.344;2022-10-16T17:46:34;15.20;99.90
37972;DHT22;23794;48.234;8.344;2022-10-16T17:49:08;15.20;99.90
37972;DHT22;23794;48.234;8.344;2022-10-16T17:51:35;15.20;99.90
37972;DHT22;23794;48.234;8.344;2022-10-16T17:54:02;15.20;99.90
37972;DHT22;23794;48.234;8.344;2022-10-16T17:56:29;15.10;99.90
37972;DHT22;23794;48.234;8.344;2022-10-16T17:58:58;15.10;99.90
37972;DHT22;23794;48.234;8.344;2022-10-16T18:01:34;15.00;99.90
37972;DHT22;23794;48.234;8.344;2022-10-16T18:04:07;15.00;99.90
37972;DHT22;23794;48.234;8.344;2022-10-16T18:06:35;14.90;99.90
37972;DHT22;23794;48.234;8.344;2022-10-16T18:09:04;14.90;99.90